createdAt,value
2019-03-18T00:00:26.343Z,66.71
2019-03-18T00:02:54.810Z,66.70
2019-03-18T00:05:23.295Z,66.69
2019-03-18T00:07:51.760Z,66.68
2019-03-18T00:10:20.206Z,66.63
2019-03-18T00:12:48.691Z,66.65
2019-03-18T00:15:17.200Z,66.66
2019-03-18T00:17:45.662Z,66.68
2019-03-18T00:20:14.799Z,66.71
2019-03-18T00:22:43.416Z,66.73
2019-03-18T00:25:18.901Z,66.59
2019-03-18T00:27:47.435Z,66.52
2019-03-18T00:30:19.836Z,66.47
2019-03-18T00:32:48.332Z,66.37
2019-03-18T00:35:17.052Z,66.29
2019-03-18T00:37:45.516Z,66.23
2019-03-18T00:40:16.431Z,66.21
2019-03-18T00:42:44.968Z,66.28
2019-03-18T00:45:15.603Z,66.34
2019-03-18T00:47:44.336Z,66.34
2019-03-18T00:50:16.138Z,66.35
2019-03-18T00:52:44.625Z,66.37
2019-03-18T00:55:13.301Z,66.41
2019-03-18T00:57:41.736Z,66.54
2019-03-18T01:00:17.697Z,66.55
2019-03-18T01:02:49.112Z,66.61
2019-03-18T01:05:16.307Z,66.70
2019-03-18T01:07:44.874Z,66.78
2019-03-18T01:10:14.538Z,66.75
2019-03-18T01:12:43.008Z,66.62
2019-03-18T01:15:12.251Z,66.61
2019-03-18T01:17:40.707Z,66.49
2019-03-18T01:20:11.265Z,66.40
2019-03-18T01:22:39.774Z,66.32
2019-03-18T01:25:12.070Z,66.19
2019-03-18T01:27:40.750Z,66.23
2019-03-18T01:30:14.592Z,66.13
2019-03-18T01:32:43.033Z,66.14
2019-03-18T01:35:12.229Z,66.23
2019-03-18T01:37:40.652Z,66.27
2019-03-18T01:40:11.040Z,66.36
2019-03-18T01:42:39.602Z,66.42
2019-03-18T01:45:09.226Z,66.51
2019-03-18T01:47:37.725Z,66.50
2019-03-18T01:50:10.733Z,66.51
2019-03-18T01:52:39.235Z,66.54
2019-03-18T01:55:07.908Z,66.52
2019-03-18T01:57:36.337Z,66.46
2019-03-18T02:00:10.027Z,66.61
2019-03-18T02:02:38.460Z,66.82
2019-03-18T02:05:08.553Z,67.00
2019-03-18T02:07:36.985Z,66.90
2019-03-18T02:10:13.455Z,66.75
2019-03-18T02:12:43.419Z,66.78
2019-03-18T02:15:14.218Z,66.73
2019-03-18T02:17:42.957Z,66.65
2019-03-18T02:20:19.427Z,66.52
2019-03-18T02:22:46.433Z,66.46
2019-03-18T02:25:14.856Z,66.39
2019-03-18T02:27:43.304Z,66.34
2019-03-18T02:30:13.870Z,66.30
2019-03-18T02:32:42.347Z,66.33
2019-03-18T02:35:10.857Z,66.30
2019-03-18T02:37:39.401Z,66.28
2019-03-18T02:40:10.171Z,66.22
2019-03-18T02:42:39.365Z,66.12
2019-03-18T02:45:09.661Z,66.14
2019-03-18T02:47:38.119Z,66.27
2019-03-18T02:50:07.688Z,66.39
2019-03-18T02:52:36.133Z,66.51
2019-03-18T02:55:05.928Z,66.53
2019-03-18T02:57:34.392Z,66.54
2019-03-18T03:00:02.903Z,66.47
2019-03-18T03:02:31.339Z,66.39
2019-03-18T03:04:59.769Z,66.46
2019-03-18T03:07:29.389Z,66.48
2019-03-18T03:09:57.832Z,66.52
2019-03-18T03:12:26.269Z,66.53
2019-03-18T03:14:54.741Z,66.67
2019-03-18T03:17:23.692Z,66.82
2019-03-18T03:19:52.092Z,66.90
2019-03-18T03:22:20.522Z,67.05
2019-03-18T03:24:48.982Z,67.12
2019-03-18T03:27:17.485Z,67.14
2019-03-18T03:29:45.933Z,67.02
2019-03-18T03:32:14.380Z,66.86
2019-03-18T03:34:42.907Z,66.83
2019-03-18T03:37:11.372Z,66.78
2019-03-18T03:39:39.802Z,66.92
2019-03-18T03:42:08.311Z,66.92
2019-03-18T03:44:36.776Z,66.94
2019-03-18T03:47:05.219Z,67.01
2019-03-18T03:49:33.656Z,67.29
2019-03-18T03:52:02.097Z,67.38
2019-03-18T03:54:30.519Z,67.56
2019-03-18T03:56:59.405Z,67.68
2019-03-18T03:59:27.906Z,67.70
2019-03-18T04:01:56.633Z,67.56
2019-03-18T04:04:25.087Z,67.43
2019-03-18T04:06:53.748Z,67.25
2019-03-18T04:09:22.180Z,67.22
2019-03-18T04:11:50.701Z,67.14
2019-03-18T04:14:19.190Z,67.14
2019-03-18T04:17:00.613Z,67.11
2019-03-18T04:19:17.954Z,67.01
2019-03-18T04:21:50.392Z,67.08
2019-03-18T04:24:16.904Z,67.12
2019-03-18T04:26:45.334Z,67.19
2019-03-18T04:29:13.789Z,67.22
2019-03-18T04:31:42.212Z,67.48
2019-03-18T04:34:10.652Z,67.57
2019-03-18T04:36:39.097Z,67.60
2019-03-18T04:39:07.827Z,67.51
2019-03-18T04:41:36.422Z,67.45
2019-03-18T04:44:04.821Z,67.36
2019-03-18T04:46:33.268Z,67.25
2019-03-18T04:49:02.070Z,67.15
2019-03-18T04:51:30.501Z,67.00
2019-03-18T04:53:58.932Z,67.04
2019-03-18T04:56:27.422Z,67.13
2019-03-18T04:58:55.840Z,67.13
2019-03-18T05:01:24.346Z,67.29
2019-03-18T05:03:52.770Z,67.33
2019-03-18T05:06:21.228Z,67.41
2019-03-18T05:08:49.743Z,67.45
2019-03-18T05:11:18.205Z,67.54
2019-03-18T05:13:46.746Z,67.51
2019-03-18T05:16:15.803Z,67.63
2019-03-18T05:18:44.243Z,67.73
2019-03-18T05:21:12.684Z,67.66
2019-03-18T05:23:41.207Z,67.71
2019-03-18T05:26:09.750Z,67.75
2019-03-18T05:28:38.170Z,67.93
2019-03-18T05:31:06.597Z,68.01
2019-03-18T05:33:35.109Z,67.95
2019-03-18T05:36:03.598Z,67.82
2019-03-18T05:38:32.003Z,67.93
2019-03-18T05:41:00.831Z,68.21
2019-03-18T05:43:29.446Z,68.08
2019-03-18T05:45:57.885Z,67.93
2019-03-18T05:48:26.321Z,67.86
2019-03-18T05:50:54.789Z,67.91
2019-03-18T05:53:23.218Z,68.08
2019-03-18T05:55:51.653Z,68.33
2019-03-18T05:58:20.111Z,68.38
2019-03-18T06:00:48.610Z,68.32
2019-03-18T06:03:17.037Z,68.18
2019-03-18T06:05:45.485Z,68.08
2019-03-18T06:08:13.919Z,68.25
2019-03-18T06:10:42.435Z,68.37
2019-03-18T06:13:14.018Z,68.65
2019-03-18T06:15:42.423Z,68.81
2019-03-18T06:18:10.928Z,68.62
2019-03-18T06:20:39.359Z,68.24
2019-03-18T06:23:07.804Z,67.74
2019-03-18T06:25:36.318Z,67.54
2019-03-18T06:28:04.790Z,67.46
2019-03-18T06:30:33.233Z,67.35
2019-03-18T06:33:01.764Z,67.06
2019-03-18T06:35:30.189Z,66.75
2019-03-18T06:37:58.643Z,66.62
2019-03-18T06:40:27.112Z,66.61
2019-03-18T06:42:55.563Z,66.67
2019-03-18T06:45:24.009Z,66.72
2019-03-18T06:48:04.079Z,66.67
2019-03-18T06:50:22.631Z,66.67
2019-03-18T06:52:51.075Z,66.68
2019-03-18T06:55:19.527Z,66.80
2019-03-18T06:57:48.922Z,66.88
2019-03-18T07:00:17.628Z,66.84
2019-03-18T07:02:46.064Z,66.63
2019-03-18T07:05:14.743Z,66.63
2019-03-18T07:07:43.190Z,66.68
2019-03-18T07:10:13.062Z,66.46
2019-03-18T07:12:41.493Z,66.40
2019-03-18T07:15:10.571Z,66.39
2019-03-18T07:17:39.020Z,66.46
2019-03-18T07:20:12.540Z,66.87
2019-03-18T07:22:41.284Z,66.87
2019-03-18T07:25:09.797Z,66.38
2019-03-18T07:27:38.661Z,66.38
2019-03-18T07:30:11.928Z,66.56
2019-03-18T07:32:40.358Z,66.66
2019-03-18T07:35:08.943Z,66.57
2019-03-18T07:37:37.401Z,65.88
2019-03-18T07:40:11.444Z,65.88
2019-03-18T07:42:39.880Z,65.93
2019-03-18T07:45:11.936Z,66.00
2019-03-18T07:47:40.400Z,66.13
2019-03-18T07:50:13.243Z,66.26
2019-03-18T07:52:41.730Z,66.05
2019-03-18T07:55:10.795Z,65.84
2019-03-18T07:57:39.217Z,65.91
2019-03-18T08:00:12.598Z,65.79
2019-03-18T08:02:41.069Z,65.79
2019-03-18T08:05:10.342Z,65.48
2019-03-18T08:07:38.801Z,65.10
2019-03-18T08:10:14.197Z,64.78
2019-03-18T08:12:42.744Z,64.85
2019-03-18T08:15:12.304Z,64.92
2019-03-18T08:17:40.818Z,64.92
2019-03-18T08:20:12.890Z,64.63
2019-03-18T08:22:41.323Z,64.67
2019-03-18T08:25:10.514Z,64.88
2019-03-18T08:27:38.979Z,65.15
2019-03-18T08:30:15.621Z,65.51
2019-03-18T08:32:44.112Z,65.61
2019-03-18T08:35:12.642Z,65.36
2019-03-18T08:37:41.142Z,65.14
2019-03-18T08:40:11.548Z,65.49
2019-03-18T08:42:39.993Z,66.02
2019-03-18T08:45:12.741Z,66.35
2019-03-18T08:47:41.190Z,66.67
2019-03-18T08:50:12.459Z,66.95
2019-03-18T08:52:41.300Z,66.93
2019-03-18T08:55:11.369Z,66.76
2019-03-18T08:57:39.857Z,66.57
2019-03-18T09:00:16.221Z,66.56
2019-03-18T09:02:44.676Z,66.59
2019-03-18T09:05:13.397Z,66.28
2019-03-18T09:07:42.003Z,65.63
2019-03-18T09:10:13.498Z,65.01
2019-03-18T09:12:42.078Z,64.66
2019-03-18T09:15:11.579Z,63.93
2019-03-18T09:17:40.192Z,63.00
2019-03-18T09:20:17.110Z,62.27
2019-03-18T09:22:45.645Z,62.04
2019-03-18T09:25:14.423Z,61.83
2019-03-18T09:27:42.851Z,61.91
2019-03-18T09:30:14.627Z,62.09
2019-03-18T09:32:43.096Z,62.64
2019-03-18T09:35:11.894Z,62.71
2019-03-18T09:37:40.355Z,62.65
2019-03-18T09:40:13.034Z,62.97
2019-03-18T09:42:41.482Z,62.94
2019-03-18T09:45:12.106Z,62.52
2019-03-18T09:47:40.553Z,62.40
2019-03-18T09:50:10.466Z,61.77
2019-03-18T09:52:39.225Z,61.13
2019-03-18T09:55:08.713Z,61.06
2019-03-18T09:57:37.313Z,61.12
2019-03-18T10:00:08.809Z,61.62
2019-03-18T10:02:37.278Z,61.86
2019-03-18T10:05:07.059Z,62.28
2019-03-18T10:07:35.508Z,62.41
2019-03-18T10:10:11.863Z,62.35
2019-03-18T10:12:40.443Z,61.50
2019-03-18T10:15:17.489Z,61.31
2019-03-18T10:17:45.962Z,61.28
2019-03-18T10:20:14.539Z,61.29
2019-03-18T10:22:43.351Z,61.25
2019-03-18T10:25:11.805Z,61.38
2019-03-18T10:27:40.281Z,61.77
2019-03-18T10:30:10.939Z,61.63
2019-03-18T10:32:39.417Z,60.79
2019-03-18T10:35:08.509Z,60.32
2019-03-18T10:37:36.955Z,60.39
2019-03-18T10:40:13.466Z,60.59
2019-03-18T10:42:41.972Z,61.60
2019-03-18T10:45:12.391Z,65.37
2019-03-18T10:47:40.858Z,68.59
2019-03-18T10:50:14.500Z,70.44
2019-03-18T10:52:43.198Z,71.01
2019-03-18T10:55:11.721Z,70.94
2019-03-18T10:57:40.212Z,70.27
2019-03-18T11:00:14.011Z,69.53
2019-03-18T11:02:44.834Z,68.76
2019-03-18T11:05:13.284Z,68.23
2019-03-18T11:07:41.730Z,67.47
2019-03-18T11:10:12.805Z,66.06
2019-03-18T11:12:41.361Z,66.06
2019-03-18T11:15:12.437Z,65.67
2019-03-18T11:17:40.985Z,65.39
2019-03-18T11:20:12.151Z,64.98
2019-03-18T11:22:40.578Z,64.55
2019-03-18T11:25:10.968Z,64.78
2019-03-18T11:27:39.450Z,65.10
2019-03-18T11:30:16.365Z,65.34
2019-03-18T11:32:44.888Z,65.60
2019-03-18T11:35:13.382Z,65.54
2019-03-18T11:37:41.865Z,65.16
2019-03-18T11:40:13.266Z,65.16
2019-03-18T11:42:41.876Z,64.99
2019-03-18T11:45:14.440Z,64.99
2019-03-18T11:47:43.019Z,64.52
2019-03-18T11:50:15.581Z,64.25
2019-03-18T11:52:44.052Z,64.08
2019-03-18T11:55:15.545Z,64.02
2019-03-18T11:57:43.998Z,64.19
2019-03-18T12:00:15.391Z,64.14
2019-03-18T12:02:43.850Z,64.07
2019-03-18T12:05:14.920Z,63.95
2019-03-18T12:07:43.638Z,63.93
2019-03-18T12:10:14.600Z,63.90
2019-03-18T12:12:43.056Z,64.40
2019-03-18T12:15:14.341Z,65.01
2019-03-18T12:17:42.800Z,65.37
2019-03-18T12:20:24.483Z,65.05
2019-03-18T12:22:45.050Z,64.44
2019-03-18T12:25:13.727Z,63.91
2019-03-18T12:27:42.179Z,63.50
2019-03-18T12:30:16.613Z,63.38
2019-03-18T12:32:45.056Z,63.18
2019-03-18T12:35:13.764Z,63.00
2019-03-18T12:37:42.223Z,62.74
2019-03-18T12:40:13.576Z,62.23
2019-03-18T12:42:42.219Z,61.73
2019-03-18T12:45:14.632Z,61.04
2019-03-18T12:47:43.088Z,60.68
2019-03-18T12:50:38.513Z,60.90
2019-03-18T12:52:53.232Z,60.79
2019-03-18T12:55:21.698Z,61.09
2019-03-18T12:57:50.196Z,61.64
2019-03-18T13:00:27.718Z,62.67
2019-03-18T13:02:56.417Z,63.92
2019-03-18T13:05:25.058Z,65.06
2019-03-18T13:07:53.549Z,66.46
2019-03-18T13:10:22.347Z,67.17
2019-03-18T13:12:51.035Z,67.35
2019-03-18T13:15:20.627Z,67.34
2019-03-18T13:17:49.099Z,67.12
2019-03-18T13:20:19.766Z,66.83
2019-03-18T13:22:48.236Z,66.67
2019-03-18T13:25:16.731Z,66.60
2019-03-18T13:27:45.241Z,66.36
2019-03-18T13:30:18.012Z,66.19
2019-03-18T13:32:46.553Z,66.02
2019-03-18T13:35:15.269Z,65.93
2019-03-18T13:37:44.157Z,65.82
2019-03-18T13:40:14.436Z,65.50
2019-03-18T13:42:43.030Z,65.27
2019-03-18T13:45:18.453Z,65.35
2019-03-18T13:47:46.974Z,65.45
2019-03-18T13:50:17.829Z,65.81
2019-03-18T13:52:46.269Z,66.14
2019-03-18T13:55:14.791Z,66.22
2019-03-18T13:57:43.316Z,66.19
2019-03-18T14:00:14.391Z,66.24
2019-03-18T14:02:43.311Z,65.89
2019-03-18T14:05:12.709Z,65.65
2019-03-18T14:07:41.237Z,65.31
2019-03-18T14:10:18.025Z,64.96
2019-03-18T14:12:46.760Z,64.89
2019-03-18T14:15:22.407Z,64.58
2019-03-18T14:17:51.151Z,64.20
2019-03-18T14:20:25.018Z,63.73
2019-03-18T14:22:53.637Z,63.71
2019-03-18T14:25:22.102Z,63.93
2019-03-18T14:27:50.562Z,63.74
2019-03-18T14:30:20.072Z,63.44
2019-03-18T14:32:48.593Z,62.86
2019-03-18T14:35:21.470Z,61.96
2019-03-18T14:37:47.527Z,61.29
2019-03-18T14:40:18.136Z,60.82
2019-03-18T14:42:46.579Z,60.46
2019-03-18T14:45:19.358Z,60.67
2019-03-18T14:47:47.862Z,60.98
2019-03-18T14:50:17.965Z,61.14
2019-03-18T14:52:46.421Z,61.31
2019-03-18T14:55:16.029Z,61.79
2019-03-18T14:57:44.442Z,61.93
2019-03-18T15:00:15.928Z,61.99
2019-03-18T15:02:44.368Z,62.44
2019-03-18T15:05:14.659Z,64.95
2019-03-18T15:07:43.317Z,66.73
2019-03-18T15:10:23.103Z,67.50
2019-03-18T15:12:51.546Z,67.46
2019-03-18T15:15:20.148Z,67.15
2019-03-18T15:17:48.596Z,67.00
2019-03-18T15:20:19.813Z,66.86
2019-03-18T15:22:48.683Z,66.37
2019-03-18T15:25:25.489Z,66.04
2019-03-18T15:27:54.052Z,65.75
2019-03-18T15:30:22.487Z,65.19
2019-03-18T15:32:50.995Z,64.75
2019-03-18T15:35:19.671Z,64.04
2019-03-18T15:37:51.293Z,63.65
2019-03-18T15:40:22.048Z,63.41
2019-03-18T15:42:50.488Z,63.56
2019-03-18T15:45:20.202Z,63.82
2019-03-18T15:47:49.441Z,64.07
2019-03-18T15:50:19.146Z,64.37
2019-03-18T15:52:47.564Z,64.42
2019-03-18T15:55:16.102Z,64.62
2019-03-18T15:57:44.717Z,64.71
2019-03-18T16:00:23.159Z,64.89
2019-03-18T16:02:52.145Z,65.16
2019-03-18T16:05:20.839Z,65.45
2019-03-18T16:07:49.359Z,65.72
2019-03-18T16:10:18.753Z,65.94
2019-03-18T16:12:47.417Z,65.91
2019-03-18T16:15:16.826Z,66.17
2019-03-18T16:17:45.363Z,66.33
2019-03-18T16:20:29.828Z,66.19
2019-03-18T16:22:58.284Z,66.05
2019-03-18T16:25:26.779Z,65.79
2019-03-18T16:27:55.270Z,65.76
2019-03-18T16:30:23.700Z,65.55
2019-03-18T16:32:52.335Z,65.44
2019-03-18T16:35:20.935Z,65.36
2019-03-18T16:37:49.364Z,65.24
2019-03-18T16:40:21.930Z,65.33
2019-03-18T16:42:50.345Z,65.43
2019-03-18T16:45:19.719Z,65.53
2019-03-18T16:47:48.881Z,65.55
2019-03-18T16:50:31.300Z,65.72
2019-03-18T16:52:59.884Z,65.80
2019-03-18T16:55:28.319Z,65.87
2019-03-18T16:57:56.752Z,66.02
2019-03-18T17:00:26.244Z,66.17
2019-03-18T17:02:54.751Z,66.17
2019-03-18T17:05:23.218Z,66.38
2019-03-18T17:07:54.024Z,66.47
2019-03-18T17:10:22.225Z,66.49
2019-03-18T17:12:51.227Z,66.63
2019-03-18T17:15:20.727Z,66.81
2019-03-18T17:17:49.188Z,66.93
2019-03-18T17:20:18.297Z,66.97
2019-03-18T17:22:49.750Z,66.90
2019-03-18T17:25:19.263Z,67.01
2019-03-18T17:27:47.751Z,66.87
2019-03-18T17:30:20.090Z,67.04
2019-03-18T17:32:48.621Z,67.04
2019-03-18T17:35:17.072Z,67.20
2019-03-18T17:37:45.578Z,67.18
2019-03-18T17:40:18.179Z,67.36
2019-03-18T17:42:46.638Z,67.42
2019-03-18T17:45:16.295Z,67.58
2019-03-18T17:47:44.799Z,67.67
2019-03-18T17:50:24.772Z,67.71
2019-03-18T17:53:02.125Z,67.78
2019-03-18T17:55:23.474Z,67.92
2019-03-18T17:57:51.860Z,67.96
2019-03-18T18:00:24.727Z,68.13
2019-03-18T18:02:53.265Z,68.37
2019-03-18T18:05:21.732Z,68.35
2019-03-18T18:07:50.160Z,68.39
2019-03-18T18:10:18.613Z,68.39
2019-03-18T18:12:47.097Z,68.41
2019-03-18T18:15:15.554Z,68.50
2019-03-18T18:17:43.989Z,68.61
2019-03-18T18:20:13.870Z,68.54
2019-03-18T18:22:42.305Z,68.37
2019-03-18T18:25:11.877Z,68.25
2019-03-18T18:27:40.328Z,68.19
2019-03-18T18:30:11.198Z,68.08
2019-03-18T18:32:39.649Z,67.87
2019-03-18T18:35:10.508Z,67.92
2019-03-18T18:37:38.953Z,68.05
2019-03-18T18:40:10.759Z,68.02
2019-03-18T18:42:39.295Z,67.95
2019-03-18T18:45:09.658Z,67.87
2019-03-18T18:47:38.327Z,67.95
2019-03-18T18:50:09.474Z,68.01
2019-03-18T18:52:37.891Z,68.09
2019-03-18T18:55:11.246Z,68.12
2019-03-18T18:57:39.759Z,68.20
2019-03-18T19:00:19.497Z,68.03
2019-03-18T19:02:47.994Z,68.00
2019-03-18T19:05:19.609Z,68.03
2019-03-18T19:07:48.352Z,67.98
2019-03-18T19:10:20.713Z,67.87
2019-03-18T19:12:49.393Z,67.66
2019-03-18T19:15:26.516Z,67.36
2019-03-18T19:17:54.970Z,67.13
2019-03-18T19:20:23.469Z,66.93
2019-03-18T19:22:51.950Z,66.69
2019-03-18T19:25:20.372Z,66.57
2019-03-18T19:27:48.818Z,66.53
2019-03-18T19:30:19.278Z,66.42
2019-03-18T19:32:47.945Z,66.42
2019-03-18T19:35:20.091Z,66.49
2019-03-18T19:37:48.565Z,66.49
2019-03-18T19:40:23.863Z,66.66
2019-03-18T19:42:52.405Z,66.77
2019-03-18T19:45:20.854Z,66.93
2019-03-18T19:47:49.289Z,67.15
2019-03-18T19:50:25.675Z,67.41
2019-03-18T19:52:54.193Z,67.41
2019-03-18T19:55:22.695Z,67.51
2019-03-18T19:57:51.257Z,67.69
2019-03-18T20:00:23.807Z,67.90
2019-03-18T20:02:52.323Z,68.05
2019-03-18T20:05:20.777Z,68.08
2019-03-18T20:07:49.222Z,68.12
2019-03-18T20:10:18.792Z,68.14
2019-03-18T20:12:47.251Z,68.23
2019-03-18T20:15:16.736Z,68.44
2019-03-18T20:17:45.193Z,68.65
2019-03-18T20:20:19.301Z,68.55
2019-03-18T20:22:47.742Z,68.50
2019-03-18T20:25:16.270Z,68.41
2019-03-18T20:27:44.718Z,68.27
2019-03-18T20:30:18.555Z,68.03
2019-03-18T20:32:47.188Z,67.94
2019-03-18T20:35:21.748Z,68.09
2019-03-18T20:37:51.771Z,68.32
2019-03-18T20:40:21.000Z,68.46
2019-03-18T20:42:49.539Z,68.49
2019-03-18T20:45:19.309Z,68.51
2019-03-18T20:47:48.088Z,68.33
2019-03-18T20:50:20.350Z,68.35
2019-03-18T20:52:48.772Z,68.41
2019-03-18T20:55:17.482Z,68.24
2019-03-18T20:57:46.144Z,67.83
2019-03-18T21:00:18.714Z,67.83
2019-03-18T21:02:47.323Z,68.12
2019-03-18T21:05:16.199Z,68.29
2019-03-18T21:07:44.945Z,68.43
2019-03-18T21:10:20.563Z,68.61
2019-03-18T21:12:49.607Z,68.76
2019-03-18T21:15:18.761Z,68.83
2019-03-18T21:17:47.554Z,68.90
2019-03-18T21:20:24.411Z,69.00
2019-03-18T21:22:52.890Z,69.06
2019-03-18T21:25:21.311Z,69.09
2019-03-18T21:27:49.896Z,69.02
2019-03-18T21:30:19.780Z,69.08
2019-03-18T21:32:48.230Z,69.20
2019-03-18T21:35:16.846Z,69.21
2019-03-18T21:37:45.269Z,69.25
2019-03-18T21:40:16.022Z,69.21
2019-03-18T21:42:44.502Z,69.22
2019-03-18T21:45:18.009Z,69.32
2019-03-18T21:47:46.455Z,69.37
2019-03-18T21:50:15.839Z,69.47
2019-03-18T21:52:44.446Z,69.50
2019-03-18T21:55:13.457Z,69.44
2019-03-18T21:57:42.169Z,69.29
2019-03-18T22:00:18.269Z,69.31
2019-03-18T22:02:46.771Z,69.50
2019-03-18T22:05:15.835Z,69.49
2019-03-18T22:07:44.280Z,69.50
2019-03-18T22:10:14.356Z,69.49
2019-03-18T22:12:42.866Z,69.18
2019-03-18T22:15:15.245Z,69.22
2019-03-18T22:17:43.795Z,69.35
2019-03-18T22:20:18.835Z,69.63
2019-03-18T22:22:47.312Z,69.65
2019-03-18T22:25:16.407Z,69.87
2019-03-18T22:27:44.953Z,69.82
2019-03-18T22:30:18.182Z,69.77
2019-03-18T22:32:47.186Z,69.87
2019-03-18T22:35:15.680Z,69.74
2019-03-18T22:37:44.437Z,69.80
2019-03-18T22:40:18.938Z,69.89
2019-03-18T22:42:47.408Z,69.81
2019-03-18T22:45:19.293Z,69.89
2019-03-18T22:47:47.750Z,69.82
2019-03-18T22:50:17.990Z,69.93
2019-03-18T22:52:46.428Z,69.92
2019-03-18T22:55:15.804Z,70.10
2019-03-18T22:57:44.250Z,70.01
2019-03-18T23:00:21.580Z,70.01
2019-03-18T23:02:51.244Z,70.16
2019-03-18T23:05:19.711Z,70.04
2019-03-18T23:07:48.147Z,69.95
2019-03-18T23:10:16.696Z,69.92
2019-03-18T23:12:45.194Z,69.91
2019-03-18T23:15:13.941Z,69.93
2019-03-18T23:17:42.791Z,69.96
2019-03-18T23:20:11.391Z,69.71
2019-03-18T23:22:39.858Z,69.95
2019-03-18T23:25:08.494Z,69.95
2019-03-18T23:27:37.049Z,69.92
2019-03-18T23:30:10.773Z,70.12
2019-03-18T23:32:39.229Z,69.95
2019-03-18T23:35:08.105Z,70.01
2019-03-18T23:37:36.532Z,70.10
2019-03-18T23:40:14.851Z,70.05
2019-03-18T23:42:43.271Z,70.18
2019-03-18T23:45:12.997Z,70.28
2019-03-18T23:47:41.424Z,70.45
2019-03-18T23:50:15.318Z,70.41
2019-03-18T23:52:43.795Z,70.30
2019-03-18T23:55:18.841Z,70.26
2019-03-18T23:57:42.533Z,70.07
